Time;durP1;ratioP1;P1;durP2;ratioP2;P2;SDS_P1;SDS_P2;PMS_P1;PMS_P2;Temp;Humidity;BMP_temperature;BMP_pressure;BME280_temperature;BME280_humidity;BME280_pressure;Samples;Min_cycle;Max_cycle;Signal;HPM_P1;HPM_P2
2022/08/03 00:02:13;;;;;;;9.95;4.53;;;;;;;19.22;91.40;100379.20;2814281;82;21034;-85
2022/08/03 00:06:14;;;;;;;5.75;3.98;;;;;;;19.16;91.87;100388.02;2797822;81;21043;-89
2022/08/03 00:10:16;;;;;;;7.55;5.55;;;;;;;19.17;91.83;100388.88;2812058;82;21058;-88
2022/08/03 00:14:17;;;;;;;5.12;4.30;;;;;;;19.13;92.16;100382.99;2809119;82;21102;-90
2022/08/03 00:18:18;;;;;;;7.72;5.70;;;;;;;19.11;92.40;100388.55;2828839;81;21072;-88
2022/08/03 00:22:21;;;;;;;4.95;4.33;;;;;;;19.08;92.93;100386.22;2809823;82;21089;-87
2022/08/03 00:26:23;;;;;;;5.45;4.62;;;;;;;19.09;92.68;100388.42;2802569;82;21632;-87
2022/08/03 00:30:24;;;;;;;8.80;5.60;;;;;;;19.02;93.04;100394.18;2810373;82;21082;-88
2022/08/03 00:34:26;;;;;;;7.30;5.90;;;;;;;18.96;93.44;100388.46;2808294;81;21006;-88
2022/08/03 00:38:27;;;;;;;6.47;5.53;;;;;;;18.91;93.82;100392.70;2832414;82;21015;-89
2022/08/03 00:42:28;;;;;;;5.87;4.80;;;;;;;18.90;94.01;100394.58;2810673;81;21101;-85
2022/08/03 00:46:30;;;;;;;5.75;5.15;;;;;;;19.01;93.06;100387.97;2806230;83;21040;-89
2022/08/03 00:50:36;;;;;;;7.85;6.30;;;;;;;19.07;92.18;100383.72;2791998;83;21016;-88
2022/08/03 00:54:38;;;;;;;8.00;5.40;;;;;;;19.15;91.30;100379.61;2791395;82;21585;-88
2022/08/03 00:58:39;;;;;;;5.87;5.35;;;;;;;19.24;90.21;100379.03;2799116;83;21363;-87
2022/08/03 01:02:40;;;;;;;6.22;5.67;;;;;;;19.27;89.88;100371.92;2789297;82;21649;-88
2022/08/03 01:06:53;;;;;;;6.65;5.92;;;;;;;19.26;89.81;100376.99;2764007;83;21129;-86
2022/08/03 01:11:05;;;;;;;7.08;5.35;;;;;;;19.29;89.48;100370.41;2803434;81;21075;-88
2022/08/03 01:15:30;;;;;;;7.67;5.90;;;;;;;19.26;89.91;100370.25;2770573;83;21075;-87
2022/08/03 01:20:08;;;;;;;7.33;5.80;;;;;;;19.02;91.38;100364.53;2801439;82;21072;-88
2022/08/03 01:24:27;;;;;;;4.53;4.12;;;;;;;18.95;91.70;100363.88;2817480;82;21054;-85
2022/08/03 01:28:57;;;;;;;6.25;5.58;;;;;;;18.88;92.11;100360.23;2798671;83;21100;-87
2022/08/03 01:33:06;;;;;;;5.95;5.03;;;;;;;18.87;92.01;100358.56;2822460;82;21043;-89
2022/08/03 01:37:11;;;;;;;6.33;5.00;;;;;;;18.74;92.84;100371.77;2812297;82;21538;-89
2022/08/03 01:41:19;;;;;;;8.70;4.15;;;;;;;18.60;94.01;100364.77;2792990;83;21551;-89
2022/08/03 01:45:21;;;;;;;5.50;5.00;;;;;;;18.57;94.06;100361.08;2817641;82;21094;-86
2022/08/03 01:49:29;;;;;;;6.65;5.65;;;;;;;18.49;94.53;100357.91;2807760;82;21126;-88
2022/08/03 01:53:32;;;;;;;7.62;5.37;;;;;;;18.44;94.96;100352.72;2812528;83;21094;-88
2022/08/03 01:57:36;;;;;;;5.42;5.03;;;;;;;18.54;94.55;100354.70;2803052;82;21613;-87
2022/08/03 02:01:39;;;;;;;15.50;5.83;;;;;;;18.61;93.87;100360.23;2821766;81;21585;-88
2022/08/03 02:05:42;;;;;;;6.33;5.35;;;;;;;18.66;93.76;100358.66;2810570;83;21080;-88
2022/08/03 02:09:48;;;;;;;5.17;4.65;;;;;;;18.72;93.60;100354.94;2797657;83;21069;-88
2022/08/03 02:13:52;;;;;;;5.10;4.60;;;;;;;18.61;94.82;100352.97;2811825;82;20986;-88
2022/08/03 02:17:55;;;;;;;5.58;4.97;;;;;;;18.62;94.41;100353.30;2802077;82;21067;-87
2022/08/03 02:21:57;;;;;;;5.00;4.53;;;;;;;18.60;94.76;100347.25;2821464;82;21055;-88
2022/08/03 02:26:04;;;;;;;5.05;4.40;;;;;;;18.70;93.89;100341.14;2795878;82;21023;-88
2022/08/03 02:30:08;;;;;;;5.87;4.75;;;;;;;18.77;93.39;100340.42;2803008;82;21641;-86
2022/08/03 02:34:13;;;;;;;9.95;5.53;;;;;;;18.88;92.70;100337.33;2800320;83;21170;-88
2022/08/03 02:38:19;;;;;;;7.63;5.43;;;;;;;18.88;92.80;100330.59;2820512;82;21079;-87
2022/08/03 02:42:21;;;;;;;;;;;;;;;18.93;92.45;100336.77;2804920;82;21003;-88
2022/08/03 02:46:27;;;;;;;6.03;5.50;;;;;;;19.02;91.96;100338.42;2800402;83;20118;-87
2022/08/03 02:50:31;;;;;;;5.70;5.20;;;;;;;19.12;91.04;100338.18;2794503;82;21000;-87
2022/08/03 02:54:34;;;;;;;21.15;5.33;;;;;;;19.16;90.73;100341.34;2811117;83;21570;-86
2022/08/03 02:58:38;;;;;;;5.47;4.92;;;;;;;19.24;90.41;100348.84;2812887;82;21059;-90
2022/08/03 03:02:42;;;;;;;8.23;5.55;;;;;;;19.34;89.86;100347.25;2808813;81;21034;-90
2022/08/03 03:06:44;;;;;;;9.08;5.20;;;;;;;19.29;90.18;100342.09;2779581;83;21039;-87
2022/08/03 03:10:46;;;;;;;6.58;5.08;;;;;;;19.30;89.83;100343.77;2809837;82;21180;-86
2022/08/03 03:14:48;;;;;;;5.92;5.33;;;;;;;19.20;90.75;100348.89;2803165;81;21011;-84
2022/08/03 03:18:50;;;;;;;7.37;5.45;;;;;;;19.09;91.43;100352.03;2778523;83;21573;-86
2022/08/03 03:22:52;;;;;;;7.67;5.05;;;;;;;19.00;91.62;100349.91;2797513;83;21136;-83
2022/08/03 03:26:54;;;;;;;4.58;4.08;;;;;;;18.82;92.61;100356.88;2798532;83;21517;-85
2022/08/03 03:30:56;;;;;;;5.33;4.50;;;;;;;18.76;93.07;100357.61;2816725;82;21149;-86
2022/08/03 03:34:58;;;;;;;5.30;4.20;;;;;;;18.67;93.56;100354.97;2775159;83;21141;-87
2022/08/03 03:39:00;;;;;;;5.15;4.67;;;;;;;18.61;93.78;100355.66;2829033;82;21169;-86
2022/08/03 03:43:02;;;;;;;10.80;4.50;;;;;;;18.53;94.09;100361.11;2806694;83;21133;-86
2022/08/03 03:47:03;;;;;;;5.65;5.25;;;;;;;18.49;94.10;100355.75;2812100;81;21122;-87
2022/08/03 03:51:06;;;;;;;5.25;4.85;;;;;;;18.52;94.18;100353.52;2813757;81;21134;-84
2022/08/03 03:55:08;;;;;;;9.40;5.25;;;;;;;18.47;94.47;100359.95;2764135;82;21164;-86
2022/08/03 03:59:09;;;;;;;8.38;5.30;;;;;;;18.52;94.48;100362.13;2777940;82;21137;-86
2022/08/03 04:03:11;;;;;;;5.72;4.37;;;;;;;18.50;94.81;100361.47;2805191;83;21040;-87
2022/08/03 04:11:39;;;;;;;6.37;5.05;;;;;;;18.56;95.19;100370.17;2802842;82;21045;-86
2022/08/03 04:15:42;;;;;;;6.05;4.37;;;;;;;18.75;93.88;100370.75;2790864;81;21030;-87
2022/08/03 04:19:49;;;;;;;6.37;5.87;;;;;;;18.83;93.31;100372.03;2803136;82;21595;-89
2022/08/03 04:23:54;;;;;;;5.17;4.67;;;;;;;19.04;93.04;100375.47;2820436;82;21605;-84
2022/08/03 04:27:59;;;;;;;5.05;4.45;;;;;;;19.17;92.26;100373.52;2831902;82;22077;-88
2022/08/03 04:32:01;;;;;;;5.45;4.62;;;;;;;19.51;91.37;100370.88;2828134;82;21082;-86
2022/08/03 04:36:07;;;;;;;9.05;5.53;;;;;;;19.88;89.94;100368.84;2804671;82;21015;-87
2022/08/03 04:40:16;;;;;;;6.45;5.08;;;;;;;20.08;89.20;100367.80;2797189;82;21039;-86
2022/08/03 04:44:21;;;;;;;14.43;5.67;;;;;;;20.88;87.52;100371.17;2804873;82;21007;-87
2022/08/03 04:48:23;;;;;;;5.28;4.70;;;;;;;21.55;83.17;100372.61;2847995;82;21123;-88
2022/08/03 04:52:24;;;;;;;38.48;6.10;;;;;;;22.45;80.62;100382.45;2797843;83;21138;-84
2022/08/03 04:56:26;;;;;;;8.65;4.60;;;;;;;23.36;76.15;100384.47;2811577;82;21036;-88
2022/08/03 05:00:28;;;;;;;4.87;3.75;;;;;;;24.13;73.21;100373.14;2790193;83;21043;-89
2022/08/03 05:04:29;;;;;;;3.72;3.27;;;;;;;24.65;71.75;100373.13;2806754;83;21025;-86
2022/08/03 05:08:31;;;;;;;7.05;3.45;;;;;;;25.26;70.00;100365.13;2804622;83;21047;-88
2022/08/03 05:12:32;;;;;;;4.35;3.60;;;;;;;25.73;68.65;100364.19;2708847;84;21052;-88
2022/08/03 05:16:33;;;;;;;4.72;3.25;;;;;;;26.33;66.18;100367.36;2804954;83;21035;-89
2022/08/03 05:20:35;;;;;;;4.47;2.72;;;;;;;26.96;64.71;100373.45;2799758;83;21087;-83
2022/08/03 05:24:36;;;;;;;3.20;2.52;;;;;;;27.36;61.62;100375.55;2842473;82;21066;-87
2022/08/03 05:28:38;;;;;;;5.87;3.22;;;;;;;27.67;61.40;100361.80;2801803;83;20992;-89
2022/08/03 05:32:39;;;;;;;4.83;3.33;;;;;;;27.80;60.13;100365.67;2799777;82;21106;-89
2022/08/03 05:36:41;;;;;;;3.37;3.08;;;;;;;28.12;59.28;100368.53;2796605;83;20975;-87
2022/08/03 05:40:43;;;;;;;4.53;3.25;;;;;;;28.28;59.49;100378.45;2803172;83;20991;-87
2022/08/03 05:44:44;;;;;;;3.45;3.15;;;;;;;28.45;59.44;100379.36;2814808;83;21033;-84
2022/08/03 05:48:45;;;;;;;4.80;2.42;;;;;;;28.74;57.52;100379.91;2823171;81;21000;-89
2022/08/03 05:52:47;;;;;;;4.87;2.98;;;;;;;28.86;56.76;100384.80;2850781;82;21031;-89
2022/08/03 05:56:49;;;;;;;3.75;3.40;;;;;;;29.20;56.06;100387.58;2831802;81;21059;-88
2022/08/03 06:00:50;;;;;;;7.28;2.67;;;;;;;29.20;56.06;100387.58;2833254;82;21095;-87
2022/08/03 06:04:51;;;;;;;3.25;2.42;;;;;;;29.61;56.83;100389.34;2809987;82;21054;-88
2022/08/03 06:08:53;;;;;;;3.33;2.83;;;;;;;30.05;54.54;100385.33;2797624;83;21071;-88
2022/08/03 06:12:54;;;;;;;3.70;2.45;;;;;;;30.21;52.96;100385.53;2827137;82;21071;-88
2022/08/03 06:16:55;;;;;;;3.87;2.95;;;;;;;30.23;53.61;100387.48;2801572;83;21574;-88
2022/08/03 06:20:57;;;;;;;3.83;2.42;;;;;;;30.19;54.32;100387.70;2821269;82;20980;-88
2022/08/03 06:24:58;;;;;;;6.33;2.15;;;;;;;30.32;53.92;100387.34;2824124;82;20974;-89
2022/08/03 06:28:59;;;;;;;2.98;1.98;;;;;;;30.15;53.55;100386.01;2812972;82;21038;-88
2022/08/03 06:33:01;;;;;;;3.17;2.87;;;;;;;29.70;54.52;100385.12;2810678;83;21016;-87
2022/08/03 06:37:03;;;;;;;2.27;1.77;;;;;;;29.82;54.38;100385.53;2839077;81;21047;-88
2022/08/03 06:41:04;;;;;;;4.42;2.10;;;;;;;29.72;55.04;100384.32;2797641;82;21131;-89
2022/08/03 06:45:08;;;;;;;3.92;2.92;;;;;;;29.86;53.81;100383.94;2818495;81;21071;-87
2022/08/03 06:49:10;;;;;;;4.65;2.70;;;;;;;30.09;54.05;100384.85;2796635;83;21055;-88
2022/08/03 06:53:11;;;;;;;7.90;2.22;;;;;;;30.19;55.37;100378.11;2768769;83;21109;-89
2022/08/03 06:57:12;;;;;;;3.33;2.00;;;;;;;29.79;54.11;100382.22;2790964;83;21082;-89
2022/08/03 07:01:14;;;;;;;3.02;2.60;;;;;;;29.94;54.31;100380.78;2803477;83;21658;-90
2022/08/03 07:05:16;;;;;;;16.10;2.65;;;;;;;30.28;54.17;100383.98;2804913;82;21109;-89
2022/08/03 07:09:17;;;;;;;8.60;2.72;;;;;;;30.47;55.21;100387.23;2798431;83;21064;-89
2022/08/03 07:13:18;;;;;;;4.42;2.62;;;;;;;30.63;55.29;100386.33;2813844;83;21029;-88
2022/08/03 07:17:19;;;;;;;4.47;2.75;;;;;;;30.95;54.27;100385.28;2809862;82;21551;-87
2022/08/03 07:21:21;;;;;;;2.42;1.98;;;;;;;30.75;54.63;100383.42;2784550;83;20981;-88
2022/08/03 07:25:25;;;;;;;11.08;2.52;;;;;;;31.02;54.38;100384.51;2810336;82;21011;-89
2022/08/03 07:29:26;;;;;;;3.72;2.08;;;;;;;31.18;53.91;100382.75;2723096;85;21071;-86
2022/08/03 07:33:27;;;;;;;3.67;2.80;;;;;;;31.11;52.35;100385.70;2801880;84;21088;-87
2022/08/03 07:37:30;;;;;;;3.45;2.33;;;;;;;31.23;53.27;100391.58;2768889;84;21086;-88
2022/08/03 07:41:31;;;;;;;3.17;2.10;;;;;;;31.60;52.12;100380.61;2799017;83;21031;-89
2022/08/03 07:45:33;;;;;;;6.33;2.80;;;;;;;31.82;52.07;100382.42;2848136;82;21000;-86
2022/08/03 07:49:40;;;;;;;2.37;2.17;;;;;;;32.03;50.99;100375.12;2816458;83;21046;-85
2022/08/03 07:53:42;;;;;;;4.80;2.60;;;;;;;32.23;50.30;100372.70;2810722;83;21070;-88
2022/08/03 07:57:43;;;;;;;3.45;1.62;;;;;;;32.36;49.48;100376.91;2821590;82;21083;-88
2022/08/03 08:01:45;;;;;;;3.02;2.37;;;;;;;32.50;50.17;100375.30;2793834;82;21067;-88
2022/08/03 08:05:46;;;;;;;2.62;2.25;;;;;;;32.72;50.20;100377.00;2834170;82;21070;-88
2022/08/03 08:09:48;;;;;;;5.75;2.12;;;;;;;32.72;49.62;100372.34;2795488;83;21035;-88
2022/08/03 08:13:49;;;;;;;2.95;1.65;;;;;;;32.64;51.27;100377.55;2792270;82;21059;-88
2022/08/03 08:17:53;;;;;;;3.67;2.05;;;;;;;32.66;49.72;100369.28;2834590;82;21071;-87
2022/08/03 08:21:54;;;;;;;2.50;1.70;;;;;;;32.75;49.21;100366.28;2801311;82;21309;-88
2022/08/03 08:25:56;;;;;;;2.40;1.65;;;;;;;32.88;48.52;100367.70;2796388;82;21011;-88
2022/08/03 08:34:37;;;;;;;2.62;1.27;;;;;;;32.72;46.61;100361.86;2823135;82;21027;-88
2022/08/03 08:38:41;;;;;;;3.77;1.62;;;;;;;32.85;46.55;100362.71;2815343;82;21070;-89
2022/08/03 08:42:44;;;;;;;2.65;1.80;;;;;;;32.86;45.99;100364.90;2794580;82;21011;-88
2022/08/03 08:46:47;;;;;;;1.65;1.47;;;;;;;32.92;45.67;100360.26;2809269;83;21137;-88
2022/08/03 08:50:54;;;;;;;4.92;1.65;;;;;;;33.05;45.29;100360.53;2830209;82;21054;-88
2022/08/03 08:55:00;;;;;;;2.45;1.45;;;;;;;33.07;45.55;100364.41;2794543;83;21039;-90
2022/08/03 08:59:02;;;;;;;3.05;1.40;;;;;;;33.05;44.99;100356.97;2823812;82;21043;-87
2022/08/03 09:03:04;;;;;;;2.37;1.80;;;;;;;33.04;46.75;100355.31;2811620;82;21093;-88
2022/08/03 09:07:05;;;;;;;2.87;2.47;;;;;;;32.96;46.36;100354.47;2821763;81;21492;-88
2022/08/03 09:11:11;;;;;;;2.08;1.80;;;;;;;33.04;46.21;100353.94;2837440;81;21063;-88
2022/08/03 09:15:23;;;;;;;2.20;2.00;;;;;;;32.87;47.20;100359.66;2809430;83;21032;-88
2022/08/03 09:19:24;;;;;;;1.67;1.50;;;;;;;32.92;45.62;100351.99;2796767;82;21048;-86
2022/08/03 09:23:31;;;;;;;2.45;1.85;;;;;;;32.76;47.19;100354.16;2816727;82;21020;-88
2022/08/03 09:27:44;;;;;;;3.12;1.98;;;;;;;32.85;46.73;100356.36;2796076;83;21023;-88
2022/08/03 09:31:47;;;;;;;2.08;1.52;;;;;;;32.90;46.72;100351.72;2820165;81;21073;-89
2022/08/03 09:35:48;;;;;;;2.85;1.60;;;;;;;32.96;46.30;100344.83;2810978;82;21024;-85
2022/08/03 09:39:50;;;;;;;3.22;2.25;;;;;;;32.80;47.17;100350.29;2814989;82;21062;-86
2022/08/03 09:43:55;;;;;;;2.20;1.70;;;;;;;32.54;48.16;100347.51;2796501;83;21027;-82
2022/08/03 09:47:55;;;;;;;1.50;1.40;;;;;;;32.55;46.95;100349.16;2799021;82;21079;-87
2022/08/03 09:52:14;;;;;;;3.08;2.00;;;;;;;32.53;47.70;100345.05;2780788;82;20995;-87
2022/08/03 09:56:27;;;;;;;46.25;6.45;;;;;;;32.46;46.33;100343.92;2794857;84;21043;-88
2022/08/03 10:00:32;;;;;;;2.40;1.22;;;;;;;32.47;47.61;100344.20;2812569;81;21121;-89
2022/08/03 10:04:33;;;;;;;1.75;1.40;;;;;;;32.60;46.17;100335.39;2833803;80;21043;-88
2022/08/03 10:08:35;;;;;;;3.90;2.12;;;;;;;32.56;48.28;100338.42;2804082;83;21065;-88
2022/08/03 10:12:38;;;;;;;1.42;1.02;;;;;;;32.67;47.28;100332.95;2807705;82;21071;-88
2022/08/03 10:16:39;;;;;;;1.37;1.27;;;;;;;32.84;45.92;100334.89;2825739;82;21024;-86
2022/08/03 10:21:02;;;;;;;2.22;1.57;;;;;;;32.76;47.08;100326.62;2843028;81;20976;-88
2022/08/03 10:25:10;;;;;;;23.18;3.87;;;;;;;32.90;46.98;100314.53;2786698;81;21081;-89
2022/08/03 10:29:17;;;;;;;6.65;2.27;;;;;;;33.03;46.44;100323.36;2833033;82;21063;-87
2022/08/03 10:33:29;;;;;;;2.98;1.55;;;;;;;33.30;46.37;100316.14;2793495;82;21031;-87
2022/08/03 10:37:35;;;;;;;2.62;1.62;;;;;;;33.36;45.27;100314.20;2848072;81;21016;-87
2022/08/03 10:41:45;;;;;;;3.12;2.25;;;;;;;33.26;43.92;100313.67;2817507;82;21014;-89
2022/08/03 10:45:45;;;;;;;2.42;2.17;;;;;;;33.06;45.75;100314.54;2835057;82;21500;-88
2022/08/03 10:49:48;;;;;;;1.67;1.57;;;;;;;33.17;44.04;100313.41;2848779;81;21070;-89
2022/08/03 10:53:50;;;;;;;2.17;1.62;;;;;;;33.17;44.41;100310.66;2815804;81;21038;-89
2022/08/03 10:57:53;;;;;;;1.90;1.77;;;;;;;33.28;44.09;100307.90;2816102;82;21102;-89
2022/08/03 11:01:57;;;;;;;10.32;3.25;;;;;;;33.51;43.98;100302.38;2817211;82;21026;-89
2022/08/03 11:06:19;;;;;;;3.63;1.70;;;;;;;33.30;43.03;100301.55;2810605;82;21039;-88
2022/08/03 11:10:31;;;;;;;4.10;2.35;;;;;;;32.94;43.66;100308.47;2827552;82;21043;-87
2022/08/03 11:14:33;;;;;;;6.95;1.25;;;;;;;32.97;44.95;100290.01;2830469;82;21948;-89
2022/08/03 11:18:34;;;;;;;1.37;1.27;;;;;;;32.87;44.38;100299.91;2758514;85;21065;-88
2022/08/03 11:22:52;;;;;;;1.42;1.20;;;;;;;33.15;45.69;100294.95;2805758;82;21055;-87
2022/08/03 11:27:21;;;;;;;3.12;1.35;;;;;;;33.43;42.41;100293.28;2800522;82;21012;-89
2022/08/03 11:31:28;;;;;;;2.98;1.40;;;;;;;33.69;42.16;100286.30;2792407;82;21709;-87
2022/08/03 11:35:34;;;;;;;1.92;1.70;;;;;;;33.51;42.50;100286.38;2816900;82;21070;-90
2022/08/03 11:39:43;;;;;;;1.62;1.52;;;;;;;33.60;43.63;100282.75;2809828;81;21165;-89
2022/08/03 11:43:45;;;;;;;3.50;1.37;;;;;;;33.56;43.75;100278.08;2800160;82;21525;-88
2022/08/03 11:47:52;;;;;;;2.42;1.98;;;;;;;33.71;43.09;100281.35;2808180;82;21426;-88
2022/08/03 11:51:53;;;;;;;2.22;1.92;;;;;;;33.73;42.68;100284.66;2816281;81;21015;-88
2022/08/03 11:56:01;;;;;;;7.33;1.98;;;;;;;33.76;42.43;100271.67;2809847;81;21031;-87
2022/08/03 12:00:07;;;;;;;4.42;1.12;;;;;;;33.89;42.83;100270.23;2761838;83;21086;-88
2022/08/03 12:04:10;;;;;;;1.95;1.72;;;;;;;33.80;43.65;100265.02;2790695;83;21053;-88
2022/08/03 12:08:14;;;;;;;10.55;2.37;;;;;;;33.97;42.39;100264.70;2801688;83;21064;-87
2022/08/03 12:12:16;;;;;;;4.37;1.50;;;;;;;34.14;43.84;100262.95;2805591;82;21494;-87
2022/08/03 12:16:21;;;;;;;1.87;1.35;;;;;;;34.32;44.31;100271.94;2817000;82;21003;-88
2022/08/03 12:20:27;;;;;;;2.22;1.57;;;;;;;34.42;42.18;100261.95;2839917;82;21040;-87
2022/08/03 12:24:33;;;;;;;2.17;1.70;;;;;;;34.58;42.76;100255.20;2846344;82;20995;-89
2022/08/03 12:28:36;;;;;;;3.72;1.85;;;;;;;34.58;41.80;100251.06;2827076;83;21055;-87
2022/08/03 12:32:37;;;;;;;3.12;1.52;;;;;;;34.64;44.18;100252.42;2856540;80;21039;-88
2022/08/03 12:36:51;;;;;;;16.95;5.20;;;;;;;34.73;43.51;100250.13;2823999;82;21051;-89
2022/08/03 12:41:00;;;;;;;2.30;0.90;;;;;;;34.71;43.16;100247.37;2815785;82;21042;-88
2022/08/03 12:45:24;;;;;;;2.05;1.30;;;;;;;34.40;39.99;100241.52;2839262;81;21042;-87
2022/08/03 12:49:26;;;;;;;1.47;1.27;;;;;;;33.91;41.24;100237.66;2822259;82;21031;-87
2022/08/03 12:53:29;;;;;;;1.25;0.98;;;;;;;33.65;40.89;100231.45;2844953;81;21670;-86
2022/08/03 12:57:42;;;;;;;2.10;1.30;;;;;;;33.54;42.17;100230.66;2822676;82;20976;-88
2022/08/03 13:01:44;;;;;;;1.87;1.77;;;;;;;33.65;43.75;100230.91;2830591;82;21074;-88
2022/08/03 13:05:47;;;;;;;2.98;1.57;;;;;;;33.80;42.69;100235.52;2783311;83;21070;-89
2022/08/03 13:09:53;;;;;;;34.35;4.83;;;;;;;34.17;44.53;100234.77;2790413;84;21051;-89
2022/08/03 13:13:55;;;;;;;2.10;1.90;;;;;;;34.42;42.92;100231.02;2821911;81;21015;-88
2022/08/03 13:17:56;;;;;;;1.22;0.90;;;;;;;34.57;42.66;100223.19;2795064;83;21083;-88
2022/08/03 13:21:57;;;;;;;4.53;1.67;;;;;;;34.64;44.59;100219.28;2807149;82;21011;-87
2022/08/03 13:25:59;;;;;;;8.35;2.15;;;;;;;34.76;42.58;100225.23;2814013;83;21029;-86
2022/08/03 13:30:01;;;;;;;3.40;1.87;;;;;;;34.80;40.23;100223.55;2774812;83;21051;-90
2022/08/03 13:34:03;;;;;;;2.87;1.50;;;;;;;34.93;40.99;100215.14;2788029;82;21051;-92
2022/08/03 13:38:04;;;;;;;33.98;7.00;;;;;;;34.96;41.60;100215.09;2827958;82;21019;-86
2022/08/03 13:42:06;;;;;;;2.80;1.70;;;;;;;35.02;41.23;100218.12;2830313;81;21035;-84
2022/08/03 13:46:14;;;;;;;1.77;1.30;;;;;;;34.65;41.30;100222.31;2834669;81;20968;-84
2022/08/03 13:50:20;;;;;;;3.10;1.30;;;;;;;34.58;38.77;100213.78;2793722;82;21917;-86
2022/08/03 13:54:22;;;;;;;2.90;1.70;;;;;;;34.79;39.18;100216.39;2824727;81;21036;-85
2022/08/03 13:58:23;;;;;;;6.28;1.75;;;;;;;34.70;41.75;100205.14;2798565;81;21414;-83
2022/08/03 14:02:24;;;;;;;2.02;1.20;;;;;;;34.88;41.49;100209.64;2832403;81;20993;-85
2022/08/03 14:06:26;;;;;;;12.65;4.08;;;;;;;35.02;41.71;100212.02;2812815;82;21039;-84
2022/08/03 14:10:28;;;;;;;25.57;5.50;;;;;;;35.00;40.23;100199.60;2819871;81;21129;-84
2022/08/03 14:14:29;;;;;;;1.17;1.07;;;;;;;35.02;39.91;100197.39;2828379;82;21456;-86
2022/08/03 14:18:30;;;;;;;3.05;1.27;;;;;;;34.96;41.02;100197.13;2827661;81;21060;-83
2022/08/03 14:22:32;;;;;;;2.98;1.20;;;;;;;35.03;41.08;100194.89;2741912;82;21025;-82
2022/08/03 14:26:33;;;;;;;2.50;1.57;;;;;;;35.15;40.87;100191.15;2804487;82;21000;-85
2022/08/03 14:30:34;;;;;;;1.65;1.00;;;;;;;35.27;39.01;100188.54;2806984;82;21082;-85
2022/08/03 14:34:36;;;;;;;1.05;0.88;;;;;;;35.25;38.43;100184.67;2795929;83;21032;-85
2022/08/03 14:38:37;;;;;;;3.40;1.30;;;;;;;35.07;38.51;100181.30;2800301;82;21068;-83
2022/08/03 14:42:38;;;;;;;10.72;3.05;;;;;;;35.08;39.49;100187.92;2803914;82;21016;-87
2022/08/03 14:46:41;;;;;;;1.60;0.98;;;;;;;34.92;37.99;100182.27;2823184;82;21019;-84
2022/08/03 14:50:43;;;;;;;1.32;1.22;;;;;;;34.70;40.44;100186.35;2764129;81;21058;-84
2022/08/03 14:54:45;;;;;;;3.10;1.25;;;;;;;34.67;38.71;100178.66;2826830;82;21511;-85
2022/08/03 14:58:46;;;;;;;1.45;1.20;;;;;;;34.76;38.85;100171.37;2753155;83;21071;-87
2022/08/03 15:02:47;;;;;;;1.95;1.57;;;;;;;34.89;38.43;100172.06;2820871;82;21016;-84
2022/08/03 15:06:51;;;;;;;5.47;1.95;;;;;;;34.97;38.35;100170.61;2826200;81;21677;-86
2022/08/03 15:10:53;;;;;;;1.82;1.60;;;;;;;34.77;39.07;100163.92;2785878;84;21039;-84
2022/08/03 15:14:55;;;;;;;1.80;1.65;;;;;;;34.75;38.63;100158.13;2819881;81;20992;-86
2022/08/03 15:19:00;;;;;;;2.70;0.80;;;;;;;34.74;39.54;100152.89;2809297;82;30908;-83
2022/08/03 15:23:01;;;;;;;1.15;1.02;;;;;;;34.62;38.95;100155.23;2830786;82;21030;-84
2022/08/03 15:27:02;;;;;;;1.75;1.52;;;;;;;34.53;40.87;100157.23;2824799;81;21036;-87
2022/08/03 15:31:05;;;;;;;1.60;1.07;;;;;;;34.56;40.44;100158.03;2754294;82;21019;-85
2022/08/03 15:35:07;;;;;;;2.42;1.60;;;;;;;34.40;39.27;100149.05;2847822;81;21026;-84
2022/08/03 15:39:08;;;;;;;1.40;1.00;;;;;;;34.35;41.65;100146.88;2775866;83;21078;-81
2022/08/03 15:43:29;;;;;;;3.60;1.30;;;;;;;34.40;39.06;100146.85;2786226;83;21965;-84
2022/08/03 15:47:31;;;;;;;2.10;1.47;;;;;;;34.41;39.71;100140.22;2810456;83;21056;-83
2022/08/03 15:51:32;;;;;;;3.02;1.80;;;;;;;34.39;40.03;100148.78;2809734;83;21077;-81
2022/08/03 15:55:34;;;;;;;2.30;1.42;;;;;;;34.28;40.32;100145.28;2730328;85;21059;-85
2022/08/03 15:59:35;;;;;;;2.40;1.10;;;;;;;34.10;39.86;100141.84;2822579;82;21030;-82
2022/08/03 16:03:37;;;;;;;3.40;1.30;;;;;;;33.83;40.53;100150.02;2850481;81;21276;-84
2022/08/03 16:07:42;;;;;;;2.52;1.92;;;;;;;33.71;40.22;100145.66;2782508;82;21015;-83
2022/08/03 16:11:43;;;;;;;2.35;1.20;;;;;;;33.57;40.22;100140.50;2824772;82;21027;-85
2022/08/03 16:15:45;;;;;;;13.03;2.77;;;;;;;33.53;39.87;100145.77;2804382;82;21367;-88
2022/08/03 16:19:46;;;;;;;1.87;1.15;;;;;;;33.53;40.98;100139.42;2759225;83;21059;-84
2022/08/03 16:23:50;;;;;;;30.23;5.83;;;;;;;33.41;40.76;100135.59;2755113;83;21134;-88
2022/08/03 16:27:53;;;;;;;;;;;;;;;33.32;41.00;100133.98;2779838;82;21063;-88
2022/08/03 16:31:54;;;;;;;5.78;1.30;;;;;;;33.37;40.31;100138.08;2802000;82;20129;-86
2022/08/03 16:35:56;;;;;;;2.22;1.60;;;;;;;33.38;40.71;100129.27;2781920;83;21370;-87
2022/08/03 16:39:57;;;;;;;4.47;1.50;;;;;;;33.31;41.52;100132.33;2845754;81;21063;-87
2022/08/03 16:43:58;;;;;;;4.62;1.50;;;;;;;33.23;41.31;100119.96;2822957;82;21032;-86
2022/08/03 16:48:00;;;;;;;3.10;1.32;;;;;;;33.18;41.04;100123.55;2821510;81;21015;-84
2022/08/03 16:52:01;;;;;;;1.80;1.70;;;;;;;33.12;41.57;100124.69;2827928;82;21016;-81
2022/08/03 16:56:03;;;;;;;2.72;1.87;;;;;;;33.04;40.68;100130.80;2816910;82;21519;-83
2022/08/03 17:00:07;;;;;;;1.52;1.30;;;;;;;32.94;41.68;100130.81;2797467;82;21046;-83
2022/08/03 17:04:09;;;;;;;2.80;1.50;;;;;;;32.81;40.87;100137.14;2824056;82;21086;-81
2022/08/03 17:08:11;;;;;;;1.70;1.57;;;;;;;32.72;40.99;100140.20;2811192;82;21082;-81
2022/08/03 17:12:13;;;;;;;3.27;1.32;;;;;;;32.65;41.79;100139.67;2837128;82;21026;-84
2022/08/03 17:16:17;;;;;;;5.83;1.62;;;;;;;32.48;42.09;100143.55;2831906;81;21067;-85
2022/08/03 17:20:20;;;;;;;6.08;2.12;;;;;;;32.33;42.52;100146.57;2839349;81;21004;-84
2022/08/03 17:24:32;;;;;;;2.12;1.85;;;;;;;32.24;42.30;100142.70;2820469;82;21000;-84
2022/08/03 17:28:41;;;;;;;2.80;1.67;;;;;;;32.13;43.42;100148.75;2829287;81;21088;-85
2022/08/03 17:32:45;;;;;;;1.92;1.32;;;;;;;32.00;43.98;100151.47;2803206;81;21086;-85
2022/08/03 17:36:47;;;;;;;2.92;2.00;;;;;;;31.90;44.74;100148.72;2826457;81;21075;-87
2022/08/03 17:41:07;;;;;;;2.00;1.25;;;;;;;31.82;44.90;100152.83;2809206;82;21808;-84
2022/08/03 17:45:10;;;;;;;1.80;1.70;;;;;;;31.68;45.50;100156.61;2799480;82;20979;-86
2022/08/03 17:49:11;;;;;;;7.13;1.70;;;;;;;31.56;45.80;100160.14;2801870;83;21095;-86
2022/08/03 17:53:15;;;;;;;6.45;3.08;;;;;;;31.43;46.39;100161.47;2821769;82;21082;-84
2022/08/03 17:57:31;;;;;;;28.75;3.90;;;;;;;31.29;46.48;100162.52;2783203;82;20978;-86
2022/08/03 18:06:09;;;;;;;4.92;1.75;;;;;;;30.94;47.93;100164.76;2783284;82;21054;-84
2022/08/03 18:10:15;;;;;;;2.45;1.60;;;;;;;30.75;48.42;100170.67;2833291;81;21067;-84
2022/08/03 18:14:22;;;;;;;2.50;1.42;;;;;;;30.58;48.87;100170.00;2797131;83;21067;-86
2022/08/03 18:18:34;;;;;;;4.85;2.33;;;;;;;30.38;49.54;100170.65;2829484;81;21142;-85
2022/08/03 18:22:36;;;;;;;5.53;2.02;;;;;;;30.22;49.85;100173.25;2840467;82;21037;-84
2022/08/03 18:26:39;;;;;;;4.53;1.87;;;;;;;30.00;50.27;100187.81;2760490;80;21078;-86
2022/08/03 18:30:44;;;;;;;3.40;2.30;;;;;;;29.83;50.48;100186.55;2798019;82;21027;-87
2022/08/03 18:34:48;;;;;;;9.90;3.40;;;;;;;29.64;51.14;100192.37;2813186;82;21039;-86
2022/08/03 18:38:51;;;;;;;7.12;2.37;;;;;;;29.42;51.55;100197.03;2816607;81;21015;-83
2022/08/03 18:42:52;;;;;;;4.37;2.40;;;;;;;29.09;52.82;100198.20;2850522;82;21086;-85
2022/08/03 18:47:17;;;;;;;5.50;2.40;;;;;;;28.91;52.58;100200.14;2821876;82;21087;-84
2022/08/03 18:51:23;;;;;;;3.62;1.75;;;;;;;28.58;54.13;100208.61;2828513;81;21522;-85
2022/08/03 19:00:08;;;;;;;21.70;7.97;;;;;;;27.91;55.59;100207.39;2826453;81;21752;-84
2022/08/03 19:04:37;;;;;;;5.65;3.20;;;;;;;27.61;56.26;100216.09;2790651;82;21030;-86
2022/08/03 19:09:04;;;;;;;5.53;2.72;;;;;;;27.48;56.48;100216.32;2838149;82;21052;-86
2022/08/03 19:13:13;;;;;;;29.00;6.08;;;;;;;27.12;56.63;100210.91;2816547;82;21696;-84